Flight Track Log - Related Links

Times and Time Zones

All times are in EDT time to prevent confusion due to time zone crossing. See the AWE1913 flight status page for this flight to view local times or setup timezone preferences in your user account.

Time Position Orientation Groundspeed Altitude Reporting Facility
EDT Latitude Longitude Course Direction KTS MPH feet Rate Location/Type
Sat 10:27:31 AM 39.8667 -75.2833 185° South 147 169 1,000  Level Philadelphia TRACON
Sat 10:28:31 AM 39.8167 -75.3167 207° Southwest 203 234 2,600 1,950 Climbing Philadelphia TRACON
Sat 10:29:31 AM 39.7667 -75.3667 218° Southwest 252 290 4,900 2,456 Climbing Philadelphia TRACON
Sat 10:30:00 AM 39.5430 -75.3081 189° South  Level FlightAware Approximate
Sat 10:31:00 AM 39.4330 -75.3334 185° South  Level FlightAware Approximate
Sat 10:31:22 AM 39.6425 -75.3086 160° South 288 331 9,600  Level Washington Center
Sat 10:32:00 AM 39.3213 -75.3458 185° South  Level FlightAware Approximate
Sat 10:32:23 AM 39.5675 -75.3142 183° South 281 323 11,600  Level Washington Center
Sat 10:33:23 AM 39.4800 -75.3308 188° South 290 334 12,800 1,636 Climbing Washington Center
Sat 10:34:24 AM 39.3967 -75.3875 208° Southwest 329 379 14,900 1,613 Climbing Washington Center
Sat 10:35:22 AM 39.3072 -75.4306 200° South 334 384 16,000 706 Climbing Washington Center
Sat 10:36:23 AM 39.2114 -75.4603 194° South 340 391 16,300 492 Climbing Washington Center
Sat 10:37:24 AM 39.1197 -75.4981 198° South 345 397 17,000 504 Climbing Washington Center
Sat 10:38:22 AM 39.0278 -75.5328 196° South 345 397 17,300 1,008 Climbing Washington Center
Sat 10:39:23 AM 38.9236 -75.5303 179° South 356 410 19,000 1,426 Climbing Washington Center
Sat 10:40:24 AM 38.8217 -75.5250 178° South 366 421 20,200 1,426 Climbing Washington Center
Sat 10:41:25 AM 38.7089 -75.5225 179° South 385 443 21,900 1,525 Climbing Washington Center
Sat 10:42:22 AM 38.5983 -75.5147 177° South 397 457 23,200 1,322 Climbing Washington Center
Sat 10:43:23 AM 38.4858 -75.5147 180° South 403 464 24,500 1,180 Climbing Washington Center
Sat 10:44:24 AM 38.3733 -75.5150 180° South 408 470 25,600 1,160 Climbing Washington Center
Sat 10:45:22 AM 38.2419 -75.5125 179° South 416 479 26,800 1,068 Climbing Washington Center
Sat 10:46:22 AM 38.1336 -75.5575 198° South 416 479 27,700 1,190 Climbing Washington Center
Sat 10:47:23 AM 38.0481 -75.6050 204° Southwest 416 479 29,200 1,388 Climbing Washington Center
Sat 10:48:23 AM 37.9375 -75.6733 206° Southwest 407 468 30,500 1,200 Climbing Washington Center
Sat 10:49:23 AM 37.8372 -75.7286 204° Southwest 407 468 31,600 992 Climbing Washington Center
Sat 10:50:24 AM 37.7392 -75.7836 204° Southwest 401 461 32,500 1,059 Climbing Washington Center
Sat 10:51:22 AM 37.6389 -75.8408 204° Southwest 396 456 33,700 661 Climbing Washington Center
Sat 10:52:22 AM 37.5367 -75.8931 202° Southwest 396 456 33,800 149 Climbing Washington Center
Sat 10:53:23 AM 37.4322 -75.9500 203° Southwest 396 456 34,000 645 Climbing Washington Center
Sat 10:54:23 AM 37.3153 -76.0150 204° Southwest 404 465 35,100 942 Climbing Washington Center
Sat 10:55:24 AM 37.2150 -76.0717 204° Southwest 404 465 35,900 446 Climbing Washington Center
Sat 10:56:24 AM 37.1125 -76.1258 203° Southwest 404 465 36,000 50 Climbing Washington Center
Sat 10:57:23 AM 37.0017 -76.1797 201° Southwest 411 473 36,000 50 Level Washington Center
Sat 10:58:23 AM 36.8950 -76.2361 203° Southwest 416 479 36,100 50 Climbing Washington Center
Sat 10:59:24 AM 36.7903 -76.2922 203° Southwest 416 479 36,100 -99 Level Washington Center
Sat 11:00:24 AM 36.6897 -76.3508 205° Southwest 416 479 35,900 -102 Descending Washington Center
Sat 11:01:22 AM 36.5853 -76.4067 203° Southwest 416 479 35,900  Level Washington Center
Sat 11:02:22 AM 36.4825 -76.4625 204° Southwest 411 473 35,900 49 Level Washington Center
Sat 11:03:24 AM 36.3778 -76.5156 202° Southwest 411 473 36,000 49 Climbing Washington Center
Sat 11:04:24 AM 36.2689 -76.5736 203° Southwest 411 473 36,000  Level Washington Center
Sat 11:05:22 AM 36.1619 -76.6264 202° Southwest 416 479 36,000  Level Washington Center
Sat 11:06:23 AM 36.0550 -76.6839 203° Southwest 416 479 36,000  Level Washington Center
Sat 11:07:23 AM 35.9544 -76.7364 203° Southwest 410 472 36,000  Level Washington Center
Sat 11:08:23 AM 35.8539 -76.7889 203° Southwest 399 459 36,000  Level Washington Center
Sat 11:09:24 AM 35.7489 -76.8461 204° Southwest 399 459 36,000  Level Washington Center
Sat 11:10:21 AM 35.6439 -76.8981 202° Southwest 405 466 36,000  Level Washington Center
Sat 11:11:22 AM 35.5433 -76.9500 203° Southwest 398 458 36,000  Level Washington Center
Sat 11:12:24 AM 35.4383 -77.0044 203° Southwest 398 458 36,000  Level Washington Center
Sat 11:13:24 AM 35.3375 -77.0586 204° Southwest 398 458 36,000  Level Washington Center
Sat 11:14:22 AM 35.2325 -77.1128 203° Southwest 398 458 36,000  Level Washington Center
Sat 11:15:23 AM 35.1297 -77.1642 202° Southwest 398 458 36,000  Level Washington Center
Sat 11:16:24 AM 35.0308 -77.2153 203° Southwest 393 452 36,000  Level Washington Center
Sat 11:17:24 AM 34.9300 -77.2692 204° Southwest 393 452 36,000  Level Washington Center
Sat 11:18:24 AM 34.8481 -77.3081 201° Southwest 399 459 36,000  Level Washington Center
Sat 11:19:22 AM 34.7367 -77.3689 204° Southwest 399 459 36,000  Level Washington Center
Sat 11:20:22 AM 34.6336 -77.4194 202° Southwest 399 459 36,000  Level Washington Center
Sat 11:21:23 AM 34.5267 -77.4600 197° South 399 459 36,000  Level Washington Center
Sat 11:22:23 AM 34.4094 -77.4800 188° South 411 473 36,000  Level Washington Center
Sat 11:23:24 AM 34.2839 -77.5047 189° South 418 481 36,000  Level Washington Center
Sat 11:26:26 AM 33.9097 -77.5678 188° South 462 532 36,000  Level Jacksonville Center
Sat 11:27:26 AM 33.7917 -77.5900 189° South 451 519 36,000  Level Jacksonville Center
Sat 11:28:27 AM 33.6694 -77.6097 188° South 446 513 36,000  Level Jacksonville Center
Sat 11:29:27 AM 33.5575 -77.6289 188° South 447 514 36,000  Level Jacksonville Center
Sat 11:30:26 AM 33.4336 -77.6561 190° South 454 522 36,000  Level Jacksonville Center
Sat 11:31:27 AM 33.3256 -77.7172 205° Southwest 449 517 36,000 -50 Level Jacksonville Center
Sat 11:32:26 AM 33.2172 -77.7756 204° Southwest 433 498 35,900  Descending Jacksonville Center
Sat 11:33:26 AM 33.1092 -77.8389 206° Southwest 438 504 36,000 50 Climbing Jacksonville Center
Sat 11:34:27 AM 32.9969 -77.9022 205° Southwest 438 504 36,000  Level Jacksonville Center
Sat 11:35:26 AM 32.8847 -77.9678 206° Southwest 438 504 36,000  Level Jacksonville Center
Sat 11:36:26 AM 32.7744 -78.0281 205° Southwest 438 504 36,000  Level Jacksonville Center
Sat 11:37:26 AM 32.6578 -78.0886 204° Southwest 438 504 36,000  Level Jacksonville Center
Sat 11:38:26 AM 32.5475 -78.1511 206° Southwest 443 510 36,000  Level Jacksonville Center
Sat 11:39:26 AM 32.4325 -78.2039 201° Southwest 443 510 36,000  Level Jacksonville Center
Sat 11:40:27 AM 32.3097 -78.2742 206° Southwest 443 510 36,000 -50 Level Jacksonville Center
Sat 11:41:27 AM 32.1992 -78.3336 204° Southwest 443 510 35,900  Descending Jacksonville Center
Sat 11:42:26 AM 32.0867 -78.3933 204° Southwest 443 510 36,000 50 Climbing Jacksonville Center
Sat 11:43:27 AM 31.9761 -78.4550 205° Southwest 443 510 36,000  Level Jacksonville Center
Sat 11:44:26 AM 31.8633 -78.5142 204° Southwest 443 510 36,000  Level Jacksonville Center
Sat 11:45:27 AM 31.7486 -78.5758 205° Southwest 441 507 36,000 -50 Level Jacksonville Center
Sat 11:46:27 AM 31.6397 -78.6322 204° Southwest 441 507 35,900  Descending Jacksonville Center
Sat 11:47:26 AM 31.5247 -78.6836 201° Southwest 441 507 36,000 50 Climbing Jacksonville Center
Sat 11:48:26 AM 31.4031 -78.7306 198° South 446 513 36,000  Level Jacksonville Center
Sat 11:49:26 AM 31.2811 -78.7653 194° South 454 522 36,000  Level Jacksonville Center
Sat 11:50:26 AM 31.1531 -78.7442 172° South 449 517 36,000  Level Jacksonville Center
Sat 11:51:26 AM 31.0394 -78.6569 147° Southeast 458 527 36,000  Level Jacksonville Center
Sat 11:52:27 AM 30.9350 -78.5914 152° Southeast 467 537 36,000  Level Jacksonville Center
Sat 11:53:26 AM 30.8153 -78.5075 149° Southeast 486 559 36,000  Level Jacksonville Center
Sat 11:54:26 AM 30.6997 -78.4258 149° Southeast 492 566 36,000  Level Jacksonville Center
Sat 11:55:27 AM 30.5861 -78.3442 148° Southeast 501 577 36,000  Level Jacksonville Center
Sat 11:56:58 AM 30.4114 -78.2217 149° Southeast 491 565 36,000  Level Miami Center
Sat 11:57:57 AM 30.2786 -78.1625 159° South 485 558 36,000  Level Miami Center
Sat 11:58:57 AM 30.1517 -78.1272 166° South 485 558 36,000  Level Miami Center
Sat 11:59:57 AM 30.0081 -78.0944 169° South 452 520 36,000  Level Miami Center
Sat 12:00:57 PM 29.8772 -78.0619 168° South 471 542 36,000  Level Miami Center
Sat 12:01:57 PM 29.7461 -78.0269 167° South 481 554 36,000  Level Miami Center
Sat 12:02:57 PM 29.6147 -77.9969 169° South 487 560 36,000  Level Miami Center
Sat 12:03:57 PM 29.4794 -77.9622 167° South 487 560 36,000 -500 Level Miami Center
Sat 12:04:57 PM 29.3506 -77.9061 159° South 487 560 35,000 -1,750 Descending Miami Center
Sat 12:05:57 PM 29.2197 -77.8453 158° South 493 567 32,500 -1,500 Descending Miami Center
Sat 12:06:57 PM 29.0989 -77.8133 167° South 480 552 32,000 -250 Descending Miami Center
Sat 12:07:57 PM 28.9633 -77.8003 175° South 472 543 32,000  Level Miami Center
Sat 12:08:57 PM 28.8319 -77.7897 176° South 479 551 32,000  Level Miami Center
Sat 12:09:57 PM 28.7006 -77.7769 175° South 484 557 32,000  Level Miami Center
Sat 12:10:57 PM 28.5669 -77.7639 175° South 484 557 32,000  Level Miami Center
Sat 12:11:58 PM 28.4294 -77.7486 174° South 484 557 32,000  Level Miami Center
Sat 12:12:57 PM 28.2958 -77.7383 176° South 484 557 32,000 -50 Level Miami Center
Sat 12:13:57 PM 28.1622 -77.7231 174° South 484 557 31,900  Descending Miami Center
Sat 12:14:57 PM 28.0267 -77.7103 175° South 477 549 32,000 50 Climbing Miami Center
Sat 12:15:57 PM 27.8867 -77.6997 176° South 488 562 32,000  Level Miami Center
Sat 12:16:57 PM 27.7575 -77.6847 174° South 491 565 32,000  Level Miami Center
Sat 12:17:57 PM 27.6175 -77.6722 175° South 496 571 32,000  Level Miami Center
Sat 12:18:57 PM 27.4881 -77.6619 176° South 496 571 32,000 -500 Level Miami Center
Sat 12:19:57 PM 27.3525 -77.6469 174° South 496 571 31,000 -1,150 Descending Miami Center
Sat 12:20:57 PM 27.2125 -77.6364 176° South 496 571 29,700 -1,150 Descending Miami Center
Sat 12:21:57 PM 27.0728 -77.6192 174° South 501 577 28,700 -950 Descending Miami Center
Sat 12:22:57 PM 26.9392 -77.6022 174° South 501 577 27,800 -950 Descending Miami Center
Sat 12:23:57 PM 26.8033 -77.5897 175° South 501 577 26,800 -942 Descending Miami Center
Sat 12:24:58 PM 26.6675 -77.5842 178° South 501 577 25,900 -950 Descending Miami Center
Sat 12:25:57 PM 26.5339 -77.5625 172° South 494 568 24,900 -1,210 Descending Miami Center
Sat 12:26:57 PM 26.4044 -77.5569 178° South 489 563 23,500 -1,650 Descending Miami Center
Sat 12:27:57 PM 26.2750 -77.5447 175° South 475 547 21,600 -1,900 Descending Miami Center
Sat 12:28:57 PM 26.1517 -77.5347 176° South 463 533 19,700 -1,850 Descending Miami Center
Sat 12:29:57 PM 26.0328 -77.5200 174° South 451 519 17,900 -1,900 Descending Miami Center
Sat 12:30:57 PM 25.9158 -77.5103 176° South 434 499 15,900 -1,550 Descending Miami Center
Sat 12:31:57 PM 25.8050 -77.5006 175° South 411 473 14,800 -950 Descending Miami Center
Sat 12:32:57 PM 25.7028 -77.4906 175° South 392 451 14,000 -900 Descending Miami Center
Sat 12:33:57 PM 25.6067 -77.4833 176° South 367 422 13,000 -850 Descending Miami Center
Sat 12:34:57 PM 25.5208 -77.4897 184° South 336 387 12,300 -700 Descending Miami Center
Sat 12:36:00 PM 25.3874 -77.4637 175° South  Level FlightAware Approximate
Sat 12:43:00 PM 25.0333 -77.4500 318° Northwest  Level FlightAware Approximate
Sat 12:44:00 PM 25.0390 -77.4662 318° Northwest  Level Estimated
Sat 12:45:00 PM 25.0390 -77.4662 318° Northwest  Level Estimated

Login

Don't have an account? Register now (free) for customized features, flight alerts, and more!